sensor_id;sensor_type;location;lat;lon;timestamp;temperature;humidity
2993;DHT22;1506;48.932;9.478;2023-11-21T00:01:33;7.80;99.90
2993;DHT22;1506;48.932;9.478;2023-11-21T00:04:01;8.10;99.90
2993;DHT22;1506;48.932;9.478;2023-11-21T00:06:30;8.00;99.90
2993;DHT22;1506;48.932;9.478;2023-11-21T00:09:04;8.00;99.90
2993;DHT22;1506;48.932;9.478;2023-11-21T00:11:33;8.00;99.90
2993;DHT22;1506;48.932;9.478;2023-11-21T00:14:06;8.00;99.90
2993;DHT22;1506;48.932;9.478;2023-11-21T00:16:35;8.00;99.90
2993;DHT22;1506;48.932;9.478;2023-11-21T00:19:02;8.40;99.90
2993;DHT22;1506;48.932;9.478;2023-11-21T00:21:30;8.00;99.90
2993;DHT22;1506;48.932;9.478;2023-11-21T00:23:57;8.00;99.90
2993;DHT22;1506;48.932;9.478;2023-11-21T00:26:24;7.90;99.90
2993;DHT22;1506;48.932;9.478;2023-11-21T00:29:00;7.90;99.90
2993;DHT22;1506;48.932;9.478;2023-11-21T00:31:27;7.90;99.90
2993;DHT22;1506;48.932;9.478;2023-11-21T00:33:54;7.90;99.90
2993;DHT22;1506;48.932;9.478;2023-11-21T00:36:22;7.90;99.90
2993;DHT22;1506;48.932;9.478;2023-11-21T00:38:49;8.00;99.90
2993;DHT22;1506;48.932;9.478;2023-11-21T00:41:16;7.90;99.90
2993;DHT22;1506;48.932;9.478;2023-11-21T00:43:43;7.90;99.90
2993;DHT22;1506;48.932;9.478;2023-11-21T00:46:11;7.90;99.90
2993;DHT22;1506;48.932;9.478;2023-11-21T00:48:38;7.90;99.90
2993;DHT22;1506;48.932;9.478;2023-11-21T00:51:05;8.00;99.90
2993;DHT22;1506;48.932;9.478;2023-11-21T00:53:32;8.00;99.90
2993;DHT22;1506;48.932;9.478;2023-11-21T00:56:00;8.00;99.90
2993;DHT22;1506;48.932;9.478;2023-11-21T00:58:27;7.90;99.90
2993;DHT22;1506;48.932;9.478;2023-11-21T01:00:54;8.00;99.90
2993;DHT22;1506;48.932;9.478;2023-11-21T01:03:22;8.00;99.90
2993;DHT22;1506;48.932;9.478;2023-11-21T01:05:50;8.10;99.90
2993;DHT22;1506;48.932;9.478;2023-11-21T01:08:17;8.10;99.90
2993;DHT22;1506;48.932;9.478;2023-11-21T01:10:44;8.20;99.90
2993;DHT22;1506;48.932;9.478;2023-11-21T01:13:13;8.30;99.90
2993;DHT22;1506;48.932;9.478;2023-11-21T01:15:42;8.40;99.90
2993;DHT22;1506;48.932;9.478;2023-11-21T01:18:09;8.40;99.90
2993;DHT22;1506;48.932;9.478;2023-11-21T01:20:37;8.40;99.90
2993;DHT22;1506;48.932;9.478;2023-11-21T01:23:05;8.50;99.90
2993;DHT22;1506;48.932;9.478;2023-11-21T01:25:32;8.50;99.90
2993;DHT22;1506;48.932;9.478;2023-11-21T01:27:59;8.30;99.90
2993;DHT22;1506;48.932;9.478;2023-11-21T01:30:27;8.20;99.90
2993;DHT22;1506;48.932;9.478;2023-11-21T01:32:54;8.30;99.90
2993;DHT22;1506;48.932;9.478;2023-11-21T01:35:22;8.30;99.90
2993;DHT22;1506;48.932;9.478;2023-11-21T01:37:49;8.40;99.90
2993;DHT22;1506;48.932;9.478;2023-11-21T01:40:17;8.40;99.90
2993;DHT22;1506;48.932;9.478;2023-11-21T01:42:45;8.50;99.90
2993;DHT22;1506;48.932;9.478;2023-11-21T01:45:14;8.50;99.90
2993;DHT22;1506;48.932;9.478;2023-11-21T01:47:42;8.50;99.90
2993;DHT22;1506;48.932;9.478;2023-11-21T01:50:15;8.40;99.90
2993;DHT22;1506;48.932;9.478;2023-11-21T01:52:45;8.50;99.90
2993;DHT22;1506;48.932;9.478;2023-11-21T01:55:12;8.60;99.90
2993;DHT22;1506;48.932;9.478;2023-11-21T01:57:54;8.70;99.90
2993;DHT22;1506;48.932;9.478;2023-11-21T02:00:21;8.40;99.90
2993;DHT22;1506;48.932;9.478;2023-11-21T02:02:56;8.30;99.90
2993;DHT22;1506;48.932;9.478;2023-11-21T02:05:23;8.50;99.90
2993;DHT22;1506;48.932;9.478;2023-11-21T02:07:50;8.30;99.90
2993;DHT22;1506;48.932;9.478;2023-11-21T02:10:19;8.30;99.90
2993;DHT22;1506;48.932;9.478;2023-11-21T02:12:51;8.40;99.90
2993;DHT22;1506;48.932;9.478;2023-11-21T02:15:20;8.40;99.90
2993;DHT22;1506;48.932;9.478;2023-11-21T02:17:48;8.40;99.90
2993;DHT22;1506;48.932;9.478;2023-11-21T02:20:20;8.40;99.90
2993;DHT22;1506;48.932;9.478;2023-11-21T02:25:20;8.30;99.90
2993;DHT22;1506;48.932;9.478;2023-11-21T02:27:47;8.30;99.90
2993;DHT22;1506;48.932;9.478;2023-11-21T02:30:15;8.30;99.90
2993;DHT22;1506;48.932;9.478;2023-11-21T02:32:44;8.30;99.90
2993;DHT22;1506;48.932;9.478;2023-11-21T02:35:15;8.30;99.90
2993;DHT22;1506;48.932;9.478;2023-11-21T02:37:45;8.30;99.90
2993;DHT22;1506;48.932;9.478;2023-11-21T02:40:12;8.30;99.90
2993;DHT22;1506;48.932;9.478;2023-11-21T02:42:39;8.30;99.90
2993;DHT22;1506;48.932;9.478;2023-11-21T02:45:07;8.30;99.90
2993;DHT22;1506;48.932;9.478;2023-11-21T02:47:35;8.40;99.90
2993;DHT22;1506;48.932;9.478;2023-11-21T02:50:02;8.40;99.90
2993;DHT22;1506;48.932;9.478;2023-11-21T02:52:30;8.40;99.90
2993;DHT22;1506;48.932;9.478;2023-11-21T02:55:00;8.40;99.90
2993;DHT22;1506;48.932;9.478;2023-11-21T02:57:27;8.40;99.90
2993;DHT22;1506;48.932;9.478;2023-11-21T02:59:54;8.40;99.90
2993;DHT22;1506;48.932;9.478;2023-11-21T03:02:22;8.40;99.90
2993;DHT22;1506;48.932;9.478;2023-11-21T03:04:49;8.40;99.90
2993;DHT22;1506;48.932;9.478;2023-11-21T03:07:18;8.50;99.90
2993;DHT22;1506;48.932;9.478;2023-11-21T03:09:46;8.40;99.90
2993;DHT22;1506;48.932;9.478;2023-11-21T03:12:14;8.40;99.90
2993;DHT22;1506;48.932;9.478;2023-11-21T03:14:42;8.40;99.90
2993;DHT22;1506;48.932;9.478;2023-11-21T03:17:10;8.40;99.90
2993;DHT22;1506;48.932;9.478;2023-11-21T03:19:37;8.40;99.90
2993;DHT22;1506;48.932;9.478;2023-11-21T03:22:04;8.40;99.90
2993;DHT22;1506;48.932;9.478;2023-11-21T03:24:32;8.50;99.90
2993;DHT22;1506;48.932;9.478;2023-11-21T03:26:59;8.40;99.90
2993;DHT22;1506;48.932;9.478;2023-11-21T03:29:27;8.50;99.90
2993;DHT22;1506;48.932;9.478;2023-11-21T03:31:54;8.60;99.90
2993;DHT22;1506;48.932;9.478;2023-11-21T03:34:25;8.60;99.90
2993;DHT22;1506;48.932;9.478;2023-11-21T03:36:54;8.60;99.90
2993;DHT22;1506;48.932;9.478;2023-11-21T03:39:21;8.60;99.90
2993;DHT22;1506;48.932;9.478;2023-11-21T03:41:49;8.50;99.90
2993;DHT22;1506;48.932;9.478;2023-11-21T03:44:16;8.50;99.90
2993;DHT22;1506;48.932;9.478;2023-11-21T03:46:44;8.50;99.90
2993;DHT22;1506;48.932;9.478;2023-11-21T03:49:11;8.60;99.90
2993;DHT22;1506;48.932;9.478;2023-11-21T03:51:41;8.30;99.90
2993;DHT22;1506;48.932;9.478;2023-11-21T03:54:08;8.30;99.90
2993;DHT22;1506;48.932;9.478;2023-11-21T03:56:39;8.40;99.90
2993;DHT22;1506;48.932;9.478;2023-11-21T03:59:06;8.40;99.90
2993;DHT22;1506;48.932;9.478;2023-11-21T04:01:33;8.30;99.90
2993;DHT22;1506;48.932;9.478;2023-11-21T04:04:01;8.40;99.90
2993;DHT22;1506;48.932;9.478;2023-11-21T04:06:29;8.40;99.90
2993;DHT22;1506;48.932;9.478;2023-11-21T04:08:56;8.30;99.90
2993;DHT22;1506;48.932;9.478;2023-11-21T04:11:24;8.20;99.90
2993;DHT22;1506;48.932;9.478;2023-11-21T04:13:51;8.10;99.90
2993;DHT22;1506;48.932;9.478;2023-11-21T04:16:18;8.20;99.90
2993;DHT22;1506;48.932;9.478;2023-11-21T04:18:45;8.20;99.90
2993;DHT22;1506;48.932;9.478;2023-11-21T04:21:13;8.10;99.90
2993;DHT22;1506;48.932;9.478;2023-11-21T04:23:40;8.00;99.90
2993;DHT22;1506;48.932;9.478;2023-11-21T04:26:07;8.00;99.90
2993;DHT22;1506;48.932;9.478;2023-11-21T04:28:34;7.90;99.90
2993;DHT22;1506;48.932;9.478;2023-11-21T04:31:01;7.90;99.90
2993;DHT22;1506;48.932;9.478;2023-11-21T04:33:28;8.00;99.90
2993;DHT22;1506;48.932;9.478;2023-11-21T04:35:56;8.00;99.90
2993;DHT22;1506;48.932;9.478;2023-11-21T04:38:23;8.00;99.90
2993;DHT22;1506;48.932;9.478;2023-11-21T04:40:50;8.00;99.90
2993;DHT22;1506;48.932;9.478;2023-11-21T04:43:17;8.00;99.90
2993;DHT22;1506;48.932;9.478;2023-11-21T04:45:45;7.90;99.90
2993;DHT22;1506;48.932;9.478;2023-11-21T04:48:13;7.80;99.90
2993;DHT22;1506;48.932;9.478;2023-11-21T04:50:41;7.90;99.90
2993;DHT22;1506;48.932;9.478;2023-11-21T04:53:07;7.90;99.90
2993;DHT22;1506;48.932;9.478;2023-11-21T04:55:35;8.10;99.90
2993;DHT22;1506;48.932;9.478;2023-11-21T04:58:02;8.30;99.90
2993;DHT22;1506;48.932;9.478;2023-11-21T05:00:31;8.30;99.90
2993;DHT22;1506;48.932;9.478;2023-11-21T05:02:58;8.20;99.90
2993;DHT22;1506;48.932;9.478;2023-11-21T05:05:29;8.30;99.90
2993;DHT22;1506;48.932;9.478;2023-11-21T05:08:00;8.40;99.90
2993;DHT22;1506;48.932;9.478;2023-11-21T05:10:28;8.40;99.90
2993;DHT22;1506;48.932;9.478;2023-11-21T05:12:56;8.30;99.90
2993;DHT22;1506;48.932;9.478;2023-11-21T05:15:25;8.20;99.90
2993;DHT22;1506;48.932;9.478;2023-11-21T05:17:54;8.10;99.90
2993;DHT22;1506;48.932;9.478;2023-11-21T05:20:22;8.00;99.90
2993;DHT22;1506;48.932;9.478;2023-11-21T05:22:50;8.10;99.90
2993;DHT22;1506;48.932;9.478;2023-11-21T05:25:17;8.00;99.90
2993;DHT22;1506;48.932;9.478;2023-11-21T05:27:45;8.10;99.90
2993;DHT22;1506;48.932;9.478;2023-11-21T05:30:13;8.10;99.90
2993;DHT22;1506;48.932;9.478;2023-11-21T05:32:41;8.10;99.90
2993;DHT22;1506;48.932;9.478;2023-11-21T05:35:11;8.10;99.90
2993;DHT22;1506;48.932;9.478;2023-11-21T05:37:42;8.10;99.90
2993;DHT22;1506;48.932;9.478;2023-11-21T05:40:10;8.20;99.90
2993;DHT22;1506;48.932;9.478;2023-11-21T05:42:40;8.20;99.90
2993;DHT22;1506;48.932;9.478;2023-11-21T05:45:08;8.30;99.90
2993;DHT22;1506;48.932;9.478;2023-11-21T05:47:40;8.30;99.90
2993;DHT22;1506;48.932;9.478;2023-11-21T05:50:14;8.20;99.90
2993;DHT22;1506;48.932;9.478;2023-11-21T05:52:42;8.30;99.90
2993;DHT22;1506;48.932;9.478;2023-11-21T05:55:11;8.30;99.90
2993;DHT22;1506;48.932;9.478;2023-11-21T05:57:39;8.20;99.90
2993;DHT22;1506;48.932;9.478;2023-11-21T06:00:07;8.30;99.90
2993;DHT22;1506;48.932;9.478;2023-11-21T06:02:53;8.30;99.90
2993;DHT22;1506;48.932;9.478;2023-11-21T06:05:22;8.20;99.90
2993;DHT22;1506;48.932;9.478;2023-11-21T06:07:51;8.10;99.90
2993;DHT22;1506;48.932;9.478;2023-11-21T06:10:19;8.00;99.90
2993;DHT22;1506;48.932;9.478;2023-11-21T06:12:47;8.00;99.90
2993;DHT22;1506;48.932;9.478;2023-11-21T06:15:15;8.20;99.90
2993;DHT22;1506;48.932;9.478;2023-11-21T06:17:43;7.90;99.90
2993;DHT22;1506;48.932;9.478;2023-11-21T06:20:11;7.80;99.90
2993;DHT22;1506;48.932;9.478;2023-11-21T06:22:42;7.80;99.90
2993;DHT22;1506;48.932;9.478;2023-11-21T06:25:10;7.70;99.90
2993;DHT22;1506;48.932;9.478;2023-11-21T06:27:40;7.80;99.90
2993;DHT22;1506;48.932;9.478;2023-11-21T06:30:09;7.90;99.90
2993;DHT22;1506;48.932;9.478;2023-11-21T06:32:38;7.90;99.90
2993;DHT22;1506;48.932;9.478;2023-11-21T06:35:06;8.00;99.90
2993;DHT22;1506;48.932;9.478;2023-11-21T06:37:35;8.10;99.90
2993;DHT22;1506;48.932;9.478;2023-11-21T06:40:03;8.20;99.90
2993;DHT22;1506;48.932;9.478;2023-11-21T06:42:34;8.10;99.90
2993;DHT22;1506;48.932;9.478;2023-11-21T06:45:01;8.30;99.90
2993;DHT22;1506;48.932;9.478;2023-11-21T06:47:30;8.00;99.90
2993;DHT22;1506;48.932;9.478;2023-11-21T06:49:58;8.10;99.90
2993;DHT22;1506;48.932;9.478;2023-11-21T06:52:26;8.00;99.90
2993;DHT22;1506;48.932;9.478;2023-11-21T06:54:53;8.00;99.90
2993;DHT22;1506;48.932;9.478;2023-11-21T06:57:22;7.90;99.90
2993;DHT22;1506;48.932;9.478;2023-11-21T06:59:50;8.00;99.90
2993;DHT22;1506;48.932;9.478;2023-11-21T07:02:17;8.40;99.90
2993;DHT22;1506;48.932;9.478;2023-11-21T07:04:45;8.00;99.90
2993;DHT22;1506;48.932;9.478;2023-11-21T07:07:13;8.00;99.90
2993;DHT22;1506;48.932;9.478;2023-11-21T07:09:40;7.90;99.90
2993;DHT22;1506;48.932;9.478;2023-11-21T07:12:08;8.00;99.90
2993;DHT22;1506;48.932;9.478;2023-11-21T07:14:35;7.80;99.90
2993;DHT22;1506;48.932;9.478;2023-11-21T07:17:03;7.80;99.90
2993;DHT22;1506;48.932;9.478;2023-11-21T07:19:30;7.80;99.90
2993;DHT22;1506;48.932;9.478;2023-11-21T07:21:58;8.00;99.90
2993;DHT22;1506;48.932;9.478;2023-11-21T07:24:25;7.80;99.90
2993;DHT22;1506;48.932;9.478;2023-11-21T07:26:53;8.10;99.90
2993;DHT22;1506;48.932;9.478;2023-11-21T07:29:23;7.80;99.90
2993;DHT22;1506;48.932;9.478;2023-11-21T07:31:53;7.90;99.90
2993;DHT22;1506;48.932;9.478;2023-11-21T07:34:21;8.00;99.90
2993;DHT22;1506;48.932;9.478;2023-11-21T07:36:48;8.20;99.90
2993;DHT22;1506;48.932;9.478;2023-11-21T07:39:15;8.40;99.90
2993;DHT22;1506;48.932;9.478;2023-11-21T07:41:43;8.60;99.90
2993;DHT22;1506;48.932;9.478;2023-11-21T07:44:18;8.70;99.90
2993;DHT22;1506;48.932;9.478;2023-11-21T07:46:47;8.60;99.90
2993;DHT22;1506;48.932;9.478;2023-11-21T07:49:17;8.60;99.90
2993;DHT22;1506;48.932;9.478;2023-11-21T07:51:47;8.80;99.90
2993;DHT22;1506;48.932;9.478;2023-11-21T07:54:15;8.40;99.90
2993;DHT22;1506;48.932;9.478;2023-11-21T07:56:42;8.50;99.90
2993;DHT22;1506;48.932;9.478;2023-11-21T07:59:09;8.50;99.90
2993;DHT22;1506;48.932;9.478;2023-11-21T08:01:37;8.50;99.90
2993;DHT22;1506;48.932;9.478;2023-11-21T08:04:05;8.40;99.90
2993;DHT22;1506;48.932;9.478;2023-11-21T08:06:33;8.50;99.90
2993;DHT22;1506;48.932;9.478;2023-11-21T08:09:00;8.50;99.90
2993;DHT22;1506;48.932;9.478;2023-11-21T08:11:28;8.60;99.90
2993;DHT22;1506;48.932;9.478;2023-11-21T08:13:58;8.70;99.90
2993;DHT22;1506;48.932;9.478;2023-11-21T08:16:26;8.60;99.90
2993;DHT22;1506;48.932;9.478;2023-11-21T08:18:54;8.90;99.90
2993;DHT22;1506;48.932;9.478;2023-11-21T08:21:22;8.60;99.90
2993;DHT22;1506;48.932;9.478;2023-11-21T08:23:53;8.80;99.90
2993;DHT22;1506;48.932;9.478;2023-11-21T08:26:21;8.90;99.90
2993;DHT22;1506;48.932;9.478;2023-11-21T08:28:49;9.00;99.90
2993;DHT22;1506;48.932;9.478;2023-11-21T08:31:23;9.20;99.90
2993;DHT22;1506;48.932;9.478;2023-11-21T08:33:52;9.30;99.90
2993;DHT22;1506;48.932;9.478;2023-11-21T08:36:22;9.40;99.90
2993;DHT22;1506;48.932;9.478;2023-11-21T08:38:51;9.50;99.90
2993;DHT22;1506;48.932;9.478;2023-11-21T08:41:21;9.30;99.90
2993;DHT22;1506;48.932;9.478;2023-11-21T08:43:51;9.70;99.90
2993;DHT22;1506;48.932;9.478;2023-11-21T08:46:19;9.60;99.90
2993;DHT22;1506;48.932;9.478;2023-11-21T08:48:47;9.60;99.90
2993;DHT22;1506;48.932;9.478;2023-11-21T08:51:14;9.80;99.90
2993;DHT22;1506;48.932;9.478;2023-11-21T08:53:43;9.70;99.90
2993;DHT22;1506;48.932;9.478;2023-11-21T08:56:13;9.80;99.90
2993;DHT22;1506;48.932;9.478;2023-11-21T08:58:43;10.00;99.90
2993;DHT22;1506;48.932;9.478;2023-11-21T09:01:10;10.10;99.90
2993;DHT22;1506;48.932;9.478;2023-11-21T09:03:39;10.10;99.90
2993;DHT22;1506;48.932;9.478;2023-11-21T09:06:06;10.20;99.90
2993;DHT22;1506;48.932;9.478;2023-11-21T09:08:36;10.30;99.90
2993;DHT22;1506;48.932;9.478;2023-11-21T09:11:04;10.30;99.90
2993;DHT22;1506;48.932;9.478;2023-11-21T09:13:32;10.50;99.90
2993;DHT22;1506;48.932;9.478;2023-11-21T09:15:59;10.60;99.90
2993;DHT22;1506;48.932;9.478;2023-11-21T09:18:27;10.80;99.90
2993;DHT22;1506;48.932;9.478;2023-11-21T09:20:54;10.90;99.90
2993;DHT22;1506;48.932;9.478;2023-11-21T09:23:21;11.10;99.90
2993;DHT22;1506;48.932;9.478;2023-11-21T09:25:48;11.20;99.90
2993;DHT22;1506;48.932;9.478;2023-11-21T09:28:17;11.20;99.90
2993;DHT22;1506;48.932;9.478;2023-11-21T09:30:44;11.10;99.90
2993;DHT22;1506;48.932;9.478;2023-11-21T09:33:11;11.10;99.90
2993;DHT22;1506;48.932;9.478;2023-11-21T09:35:38;11.20;99.90
2993;DHT22;1506;48.932;9.478;2023-11-21T09:38:06;11.60;99.90
2993;DHT22;1506;48.932;9.478;2023-11-21T09:40:38;12.50;99.90
2993;DHT22;1506;48.932;9.478;2023-11-21T09:43:06;12.50;99.90
2993;DHT22;1506;48.932;9.478;2023-11-21T09:45:36;12.30;46.70
2993;DHT22;1506;48.932;9.478;2023-11-21T09:48:05;12.10;87.60
2993;DHT22;1506;48.932;9.478;2023-11-21T09:50:33;12.10;94.70
2993;DHT22;1506;48.932;9.478;2023-11-21T09:55:37;11.80;99.90
2993;DHT22;1506;48.932;9.478;2023-11-21T09:58:05;11.90;99.90
2993;DHT22;1506;48.932;9.478;2023-11-21T10:00:34;11.80;99.90
2993;DHT22;1506;48.932;9.478;2023-11-21T10:03:01;11.80;99.90
2993;DHT22;1506;48.932;9.478;2023-11-21T10:05:29;11.80;99.90
2993;DHT22;1506;48.932;9.478;2023-11-21T10:08:00;11.80;98.80
2993;DHT22;1506;48.932;9.478;2023-11-21T10:10:28;11.80;72.10
2993;DHT22;1506;48.932;9.478;2023-11-21T10:12:56;11.70;81.30
2993;DHT22;1506;48.932;9.478;2023-11-21T10:15:24;11.60;85.70
2993;DHT22;1506;48.932;9.478;2023-11-21T10:17:54;11.30;80.60
2993;DHT22;1506;48.932;9.478;2023-11-21T10:20:24;11.10;99.90
2993;DHT22;1506;48.932;9.478;2023-11-21T10:22:52;11.00;99.90
2993;DHT22;1506;48.932;9.478;2023-11-21T10:25:20;11.00;99.90
2993;DHT22;1506;48.932;9.478;2023-11-21T10:27:47;10.90;99.90
2993;DHT22;1506;48.932;9.478;2023-11-21T10:30:18;10.90;99.90
2993;DHT22;1506;48.932;9.478;2023-11-21T10:32:45;11.10;99.90
2993;DHT22;1506;48.932;9.478;2023-11-21T10:35:13;11.20;99.90
2993;DHT22;1506;48.932;9.478;2023-11-21T10:37:40;11.10;99.90
2993;DHT22;1506;48.932;9.478;2023-11-21T10:40:08;11.10;99.90
2993;DHT22;1506;48.932;9.478;2023-11-21T10:42:42;11.30;99.90
2993;DHT22;1506;48.932;9.478;2023-11-21T10:45:09;11.50;99.90
2993;DHT22;1506;48.932;9.478;2023-11-21T10:47:41;11.60;99.90
2993;DHT22;1506;48.932;9.478;2023-11-21T10:50:09;11.70;99.90
2993;DHT22;1506;48.932;9.478;2023-11-21T10:52:41;11.60;99.90
2993;DHT22;1506;48.932;9.478;2023-11-21T10:55:17;11.60;99.90
2993;DHT22;1506;48.932;9.478;2023-11-21T10:57:46;11.60;99.90
2993;DHT22;1506;48.932;9.478;2023-11-21T11:00:15;11.50;99.90
2993;DHT22;1506;48.932;9.478;2023-11-21T11:02:43;11.50;99.90
2993;DHT22;1506;48.932;9.478;2023-11-21T11:05:11;11.50;99.90
2993;DHT22;1506;48.932;9.478;2023-11-21T11:07:38;11.50;99.90
2993;DHT22;1506;48.932;9.478;2023-11-21T11:10:08;11.70;99.90
2993;DHT22;1506;48.932;9.478;2023-11-21T11:12:41;12.00;99.90
2993;DHT22;1506;48.932;9.478;2023-11-21T11:15:08;12.20;99.90
2993;DHT22;1506;48.932;9.478;2023-11-21T11:17:38;12.40;87.40
2993;DHT22;1506;48.932;9.478;2023-11-21T11:20:05;12.50;24.80
2993;DHT22;1506;48.932;9.478;2023-11-21T11:22:40;12.40;1.00
2993;DHT22;1506;48.932;9.478;2023-11-21T11:27:48;12.20;15.10
2993;DHT22;1506;48.932;9.478;2023-11-21T11:30:28;12.10;27.70
2993;DHT22;1506;48.932;9.478;2023-11-21T11:36:06;12.10;30.70
2993;DHT22;1506;48.932;9.478;2023-11-21T11:38:47;12.00;32.90
2993;DHT22;1506;48.932;9.478;2023-11-21T11:41:30;12.00;61.00
2993;DHT22;1506;48.932;9.478;2023-11-21T11:44:00;12.10;53.30
2993;DHT22;1506;48.932;9.478;2023-11-21T11:46:44;12.10;25.50
2993;DHT22;1506;48.932;9.478;2023-11-21T11:49:23;12.30;44.90
2993;DHT22;1506;48.932;9.478;2023-11-21T11:52:53;12.40;21.70
2993;DHT22;1506;48.932;9.478;2023-11-21T11:55:08;12.40;28.80
2993;DHT22;1506;48.932;9.478;2023-11-21T11:57:46;12.40;15.60
2993;DHT22;1506;48.932;9.478;2023-11-21T12:00:23;12.40;26.00
2993;DHT22;1506;48.932;9.478;2023-11-21T12:03:05;12.40;39.70
2993;DHT22;1506;48.932;9.478;2023-11-21T12:05:34;12.20;20.00
2993;DHT22;1506;48.932;9.478;2023-11-21T12:08:06;12.00;43.40
2993;DHT22;1506;48.932;9.478;2023-11-21T12:10:35;11.80;70.90
2993;DHT22;1506;48.932;9.478;2023-11-21T12:13:05;11.60;89.70
2993;DHT22;1506;48.932;9.478;2023-11-21T12:15:34;11.50;99.90
2993;DHT22;1506;48.932;9.478;2023-11-21T12:18:02;11.60;99.90
2993;DHT22;1506;48.932;9.478;2023-11-21T12:20:30;11.70;99.90
2993;DHT22;1506;48.932;9.478;2023-11-21T12:23:00;11.60;99.90
2993;DHT22;1506;48.932;9.478;2023-11-21T12:25:28;11.70;99.90
2993;DHT22;1506;48.932;9.478;2023-11-21T12:27:59;11.90;99.90
2993;DHT22;1506;48.932;9.478;2023-11-21T12:30:28;11.90;99.90
2993;DHT22;1506;48.932;9.478;2023-11-21T12:32:58;12.00;99.90
2993;DHT22;1506;48.932;9.478;2023-11-21T12:35:30;12.10;99.90
2993;DHT22;1506;48.932;9.478;2023-11-21T12:38:01;12.40;96.80
2993;DHT22;1506;48.932;9.478;2023-11-21T12:40:32;12.50;72.40
2993;DHT22;1506;48.932;9.478;2023-11-21T12:43:00;12.70;34.80
2993;DHT22;1506;48.932;9.478;2023-11-21T12:45:28;12.90;1.00
2993;DHT22;1506;48.932;9.478;2023-11-21T12:47:59;12.60;1.00
2993;DHT22;1506;48.932;9.478;2023-11-21T12:50:30;12.60;1.00
2993;DHT22;1506;48.932;9.478;2023-11-21T12:53:01;12.50;6.80
2993;DHT22;1506;48.932;9.478;2023-11-21T12:55:33;12.40;10.60
2993;DHT22;1506;48.932;9.478;2023-11-21T12:58:05;12.20;29.30
2993;DHT22;1506;48.932;9.478;2023-11-21T13:00:39;12.10;55.00
2993;DHT22;1506;48.932;9.478;2023-11-21T13:03:10;12.00;96.20
2993;DHT22;1506;48.932;9.478;2023-11-21T13:05:40;11.90;99.90
2993;DHT22;1506;48.932;9.478;2023-11-21T13:08:14;11.80;99.90
2993;DHT22;1506;48.932;9.478;2023-11-21T13:10:48;11.70;99.90
2993;DHT22;1506;48.932;9.478;2023-11-21T13:13:17;11.60;99.90
2993;DHT22;1506;48.932;9.478;2023-11-21T13:15:51;11.60;99.90
2993;DHT22;1506;48.932;9.478;2023-11-21T13:18:28;11.70;99.90
2993;DHT22;1506;48.932;9.478;2023-11-21T13:20:56;11.40;99.90
2993;DHT22;1506;48.932;9.478;2023-11-21T13:23:25;11.20;99.90
2993;DHT22;1506;48.932;9.478;2023-11-21T13:25:52;11.10;99.90
2993;DHT22;1506;48.932;9.478;2023-11-21T13:28:33;11.00;99.90
2993;DHT22;1506;48.932;9.478;2023-11-21T13:31:02;11.10;99.90
2993;DHT22;1506;48.932;9.478;2023-11-21T13:33:40;11.10;99.90
2993;DHT22;1506;48.932;9.478;2023-11-21T13:36:09;11.10;99.90
2993;DHT22;1506;48.932;9.478;2023-11-21T13:38:37;11.10;99.90
2993;DHT22;1506;48.932;9.478;2023-11-21T13:41:10;11.10;99.90
2993;DHT22;1506;48.932;9.478;2023-11-21T13:43:39;11.10;99.90
2993;DHT22;1506;48.932;9.478;2023-11-21T13:46:06;11.10;99.90
2993;DHT22;1506;48.932;9.478;2023-11-21T13:48:44;10.90;99.90
2993;DHT22;1506;48.932;9.478;2023-11-21T13:51:18;10.90;99.90
2993;DHT22;1506;48.932;9.478;2023-11-21T13:53:45;10.90;99.90
2993;DHT22;1506;48.932;9.478;2023-11-21T13:56:19;10.90;99.90
2993;DHT22;1506;48.932;9.478;2023-11-21T13:58:51;10.80;99.90
2993;DHT22;1506;48.932;9.478;2023-11-21T14:01:23;10.80;99.90
2993;DHT22;1506;48.932;9.478;2023-11-21T14:03:58;10.70;99.90
2993;DHT22;1506;48.932;9.478;2023-11-21T14:06:45;10.60;99.90
2993;DHT22;1506;48.932;9.478;2023-11-21T14:09:18;10.50;99.90
2993;DHT22;1506;48.932;9.478;2023-11-21T14:11:52;10.30;99.90
2993;DHT22;1506;48.932;9.478;2023-11-21T14:14:23;10.00;99.90
2993;DHT22;1506;48.932;9.478;2023-11-21T14:16:57;10.00;99.90
2993;DHT22;1506;48.932;9.478;2023-11-21T14:19:26;10.10;99.90
2993;DHT22;1506;48.932;9.478;2023-11-21T14:21:58;10.00;99.90
2993;DHT22;1506;48.932;9.478;2023-11-21T14:24:27;9.90;99.90
2993;DHT22;1506;48.932;9.478;2023-11-21T14:26:56;9.70;99.90
2993;DHT22;1506;48.932;9.478;2023-11-21T14:29:23;9.80;99.90
2993;DHT22;1506;48.932;9.478;2023-11-21T14:31:50;10.00;99.90
2993;DHT22;1506;48.932;9.478;2023-11-21T14:34:20;10.10;99.90
2993;DHT22;1506;48.932;9.478;2023-11-21T14:36:49;10.30;99.90
2993;DHT22;1506;48.932;9.478;2023-11-21T14:39:17;10.10;99.90
2993;DHT22;1506;48.932;9.478;2023-11-21T14:41:53;10.00;99.90
2993;DHT22;1506;48.932;9.478;2023-11-21T14:44:22;10.10;99.90
2993;DHT22;1506;48.932;9.478;2023-11-21T14:46:59;10.20;99.90
2993;DHT22;1506;48.932;9.478;2023-11-21T14:49:29;10.20;99.90
2993;DHT22;1506;48.932;9.478;2023-11-21T14:52:07;10.30;99.90
2993;DHT22;1506;48.932;9.478;2023-11-21T14:54:50;10.30;99.90
2993;DHT22;1506;48.932;9.478;2023-11-21T14:57:30;10.40;99.90
2993;DHT22;1506;48.932;9.478;2023-11-21T14:59:58;10.30;99.90
2993;DHT22;1506;48.932;9.478;2023-11-21T15:02:25;10.40;99.90
2993;DHT22;1506;48.932;9.478;2023-11-21T15:05:11;10.40;99.90
2993;DHT22;1506;48.932;9.478;2023-11-21T15:07:43;10.50;99.90
2993;DHT22;1506;48.932;9.478;2023-11-21T15:10:12;10.40;99.90
2993;DHT22;1506;48.932;9.478;2023-11-21T15:12:42;10.30;99.90
2993;DHT22;1506;48.932;9.478;2023-11-21T15:15:11;10.30;99.90
2993;DHT22;1506;48.932;9.478;2023-11-21T15:17:38;10.10;99.90
2993;DHT22;1506;48.932;9.478;2023-11-21T15:20:09;10.10;99.90
2993;DHT22;1506;48.932;9.478;2023-11-21T15:22:39;10.00;99.90
2993;DHT22;1506;48.932;9.478;2023-11-21T15:25:07;9.90;99.90
2993;DHT22;1506;48.932;9.478;2023-11-21T15:27:37;10.10;99.90
2993;DHT22;1506;48.932;9.478;2023-11-21T15:30:05;9.90;99.90
2993;DHT22;1506;48.932;9.478;2023-11-21T15:32:33;9.90;99.90
2993;DHT22;1506;48.932;9.478;2023-11-21T15:35:00;9.90;99.90
2993;DHT22;1506;48.932;9.478;2023-11-21T15:37:27;9.80;99.90
2993;DHT22;1506;48.932;9.478;2023-11-21T15:39:55;9.80;99.90
2993;DHT22;1506;48.932;9.478;2023-11-21T15:42:22;9.80;99.90
2993;DHT22;1506;48.932;9.478;2023-11-21T15:44:50;9.80;99.90
2993;DHT22;1506;48.932;9.478;2023-11-21T15:47:18;9.70;99.90
2993;DHT22;1506;48.932;9.478;2023-11-21T15:49:45;9.70;99.90
2993;DHT22;1506;48.932;9.478;2023-11-21T15:52:16;9.70;99.90
2993;DHT22;1506;48.932;9.478;2023-11-21T15:54:44;9.50;99.90
2993;DHT22;1506;48.932;9.478;2023-11-21T15:57:13;9.30;99.90
2993;DHT22;1506;48.932;9.478;2023-11-21T15:59:41;9.20;99.90
2993;DHT22;1506;48.932;9.478;2023-11-21T16:02:10;9.10;99.90
2993;DHT22;1506;48.932;9.478;2023-11-21T16:04:39;9.10;99.90
2993;DHT22;1506;48.932;9.478;2023-11-21T16:07:08;9.10;99.90
2993;DHT22;1506;48.932;9.478;2023-11-21T16:09:36;9.10;99.90
2993;DHT22;1506;48.932;9.478;2023-11-21T16:12:05;9.00;99.90
2993;DHT22;1506;48.932;9.478;2023-11-21T16:14:34;9.00;99.90
2993;DHT22;1506;48.932;9.478;2023-11-21T16:17:05;9.00;99.90
2993;DHT22;1506;48.932;9.478;2023-11-21T16:19:35;9.00;99.90
2993;DHT22;1506;48.932;9.478;2023-11-21T16:22:02;8.90;99.90
2993;DHT22;1506;48.932;9.478;2023-11-21T16:24:29;8.80;99.90
2993;DHT22;1506;48.932;9.478;2023-11-21T16:27:00;8.80;99.90
2993;DHT22;1506;48.932;9.478;2023-11-21T16:29:28;8.60;99.90
2993;DHT22;1506;48.932;9.478;2023-11-21T16:31:57;8.50;99.90
2993;DHT22;1506;48.932;9.478;2023-11-21T16:34:25;8.40;99.90
2993;DHT22;1506;48.932;9.478;2023-11-21T16:36:54;8.30;99.90